Time;durP1;ratioP1;P1;durP2;ratioP2;P2;SDS_P1;SDS_P2;PMS_P1;PMS_P2;Temp;Humidity;BMP_temperature;BMP_pressure;BME280_temperature;BME280_humidity;BME280_pressure;Samples;Min_cycle;Max_cycle;Signal;HPM_P1;HPM_P2
2021/06/28 00:00:18;;;;;;;8.93;5.40;;;22.30;1.00;;;;;;5075145;28;20858;-67
2021/06/28 00:02:45;;;;;;;5.80;5.20;;;22.20;1.00;;;;;;5074995;28;20465;-67
2021/06/28 00:05:14;;;;;;;6.27;5.40;;;22.20;1.00;;;;;;5074893;28;20462;-67
2021/06/28 00:07:43;;;;;;;6.30;5.70;;;22.20;1.00;;;;;;5074888;28;20454;-67
2021/06/28 00:10:11;;;;;;;6.60;6.00;;;22.20;1.00;;;;;;5074619;28;20921;-66
2021/06/28 00:12:41;;;;;;;19.40;6.20;;;22.20;1.00;;;;;;5074569;28;20454;-66
2021/06/28 00:15:11;;;;;;;7.03;5.97;;;22.10;1.00;;;;;;5075095;28;20454;-66
2021/06/28 00:17:38;;;;;;;6.70;6.10;;;22.10;1.00;;;;;;5074670;28;20445;-67
2021/06/28 00:20:07;;;;;;;6.43;5.60;;;22.10;1.00;;;;;;5074952;28;20481;-66
2021/06/28 00:22:34;;;;;;;6.60;6.00;;;22.10;1.00;;;;;;5074928;28;20462;-66
2021/06/28 00:25:09;;;;;;;6.87;5.57;;;22.10;1.00;;;;;;5074983;28;20454;-66
2021/06/28 00:27:35;;;;;;;8.50;6.03;;;22.10;2.90;;;;;;5075438;28;20481;-66
2021/06/28 00:30:04;;;;;;;5.90;5.30;;;22.10;12.60;;;;;;5074610;28;20779;-67
2021/06/28 00:32:33;;;;;;;5.87;5.37;;;22.00;9.20;;;;;;5074435;28;20462;-66
2021/06/28 00:35:00;;;;;;;5.43;4.93;;;22.00;7.50;;;;;;5074721;28;20465;-66
2021/06/28 00:37:27;;;;;;;4.97;4.50;;;22.00;14.90;;;;;;5074371;28;20918;-67
2021/06/28 00:39:54;;;;;;;6.00;5.20;;;22.00;22.40;;;;;;5074468;28;20835;-66
2021/06/28 00:42:24;;;;;;;6.50;5.00;;;22.00;35.60;;;;;;5074600;28;20465;-65
2021/06/28 00:44:51;;;;;;;5.57;5.07;;;22.00;37.40;;;;;;5074686;28;20461;-65
2021/06/28 00:47:19;;;;;;;5.53;5.03;;;21.90;52.10;;;;;;5075270;28;20551;-66
2021/06/28 00:49:45;;;;;;;6.30;5.63;;;21.90;59.10;;;;;;5078526;28;20450;-65
2021/06/28 00:52:13;;;;;;;5.07;4.67;;;21.90;61.40;;;;;;5078330;28;20462;-66
2021/06/28 00:54:42;;;;;;;6.33;5.67;;;21.90;67.10;;;;;;5078577;28;20458;-65
2021/06/28 00:57:09;;;;;;;6.53;5.43;;;21.90;85.20;;;;;;5078313;28;20454;-66
2021/06/28 00:59:38;;;;;;;5.90;5.30;;;21.80;69.10;;;;;;5078338;28;20546;-66
2021/06/28 01:02:06;;;;;;;5.77;5.30;;;21.80;75.80;;;;;;5078568;28;20786;-66
2021/06/28 01:04:33;;;;;;;5.30;4.80;;;21.80;77.00;;;;;;5078742;28;20454;-66
2021/06/28 01:06:59;;;;;;;6.07;5.47;;;21.80;85.80;;;;;;5078400;28;20477;-66
2021/06/28 01:09:26;;;;;;;6.00;5.50;;;21.80;99.00;;;;;;5077769;28;20922;-66
2021/06/28 01:11:53;;;;;;;5.20;4.70;;;21.80;95.40;;;;;;5078245;28;20476;-66
2021/06/28 01:14:20;;;;;;;5.30;4.80;;;21.80;94.20;;;;;;5078498;28;20465;-66
2021/06/28 01:16:48;;;;;;;5.73;5.23;;;21.80;99.90;;;;;;5078200;28;20768;-66
2021/06/28 01:19:16;;;;;;;5.40;5.00;;;21.70;99.90;;;;;;5078209;28;20508;-66
2021/06/28 01:21:44;;;;;;;5.70;5.20;;;21.70;99.90;;;;;;5077901;28;20489;-66
2021/06/28 01:24:13;;;;;;;5.70;5.20;;;21.70;99.90;;;;;;5077664;28;20454;-66
2021/06/28 01:26:40;;;;;;;5.40;4.90;;;21.70;99.90;;;;;;5077594;28;20886;-66
2021/06/28 01:29:07;;;;;;;4.77;4.47;;;21.70;99.90;;;;;;5078170;28;20458;-66
2021/06/28 01:31:34;;;;;;;6.10;5.60;;;21.70;99.90;;;;;;5077432;28;20523;-66
2021/06/28 01:34:01;;;;;;;5.30;4.90;;;21.70;99.90;;;;;;5077760;28;20464;-66
2021/06/28 01:36:27;;;;;;;5.77;5.17;;;21.70;99.90;;;;;;5077832;28;20466;-66
2021/06/28 01:38:54;;;;;;;5.67;5.27;;;21.70;99.90;;;;;;5077745;28;20514;-66
2021/06/28 01:41:22;;;;;;;5.67;5.17;;;21.60;99.90;;;;;;5077844;28;20469;-66
2021/06/28 01:43:49;;;;;;;4.90;4.40;;;21.60;99.90;;;;;;5077611;28;20527;-66
2021/06/28 01:46:18;;;;;;;6.20;5.40;;;21.60;99.90;;;;;;5077459;28;20458;-66
2021/06/28 01:48:45;;;;;;;5.37;4.97;;;21.60;99.90;;;;;;5077722;28;20455;-66
2021/06/28 01:51:12;;;;;;;5.30;4.80;;;21.60;99.90;;;;;;5077292;28;20477;-66
2021/06/28 01:53:39;;;;;;;5.43;4.93;;;21.50;99.90;;;;;;5077722;28;20454;-66
2021/06/28 01:56:07;;;;;;;5.30;4.87;;;21.50;99.90;;;;;;5077158;28;20915;-66
2021/06/28 01:58:35;;;;;;;5.70;5.20;;;21.50;99.90;;;;;;5076921;28;20922;-66
2021/06/28 02:01:05;;;;;;;5.63;5.13;;;21.50;99.90;;;;;;5076979;28;20839;-66
2021/06/28 02:03:37;;;;;;;5.20;4.80;;;21.50;99.90;;;;;;5077055;28;20792;-66
2021/06/28 02:06:04;;;;;;;5.80;4.17;;;21.50;99.90;;;;;;5077227;28;20843;-66
2021/06/28 02:08:33;;;;;;;5.57;5.10;;;21.40;99.90;;;;;;5077094;28;20801;-66
2021/06/28 02:11:02;;;;;;;5.37;4.97;;;21.40;99.90;;;;;;5076789;28;20454;-66
2021/06/28 02:13:31;;;;;;;5.37;4.87;;;21.40;99.90;;;;;;5077105;28;20899;-66
2021/06/28 02:15:59;;;;;;;6.50;5.90;;;21.40;99.90;;;;;;5076841;28;20454;-65
2021/06/28 02:18:27;;;;;;;6.23;5.60;;;21.40;99.90;;;;;;5076308;28;20466;-66
2021/06/28 02:20:55;;;;;;;5.30;4.60;;;21.30;99.90;;;;;;5076831;28;20474;-66
2021/06/28 02:23:28;;;;;;;4.90;4.50;;;21.30;99.90;;;;;;5076336;28;20796;-66
2021/06/28 02:25:56;;;;;;;5.50;5.00;;;21.30;99.90;;;;;;5076935;28;20469;-66
2021/06/28 02:28:23;;;;;;;6.10;5.57;;;21.30;99.90;;;;;;5076808;28;20508;-66
2021/06/28 02:30:50;;;;;;;5.47;4.97;;;21.30;99.90;;;;;;5076310;28;20461;-66
2021/06/28 02:33:18;;;;;;;7.73;5.37;;;21.30;99.90;;;;;;5076588;28;20498;-67
2021/06/28 02:35:45;;;;;;;5.80;5.00;;;21.20;99.90;;;;;;5076519;28;20454;-66
2021/06/28 02:38:12;;;;;;;6.77;4.87;;;21.20;99.90;;;;;;5076650;28;20506;-66
2021/06/28 02:40:38;;;;;;;5.33;4.83;;;21.20;99.90;;;;;;5076588;28;20482;-66
2021/06/28 02:43:05;;;;;;;6.07;5.40;;;21.20;99.90;;;;;;5076101;28;20545;-66
2021/06/28 02:45:32;;;;;;;6.13;5.53;;;21.10;99.90;;;;;;5076430;28;20852;-66
2021/06/28 02:47:59;;;;;;;6.03;5.47;;;21.10;99.90;;;;;;5076346;28;20486;-66
2021/06/28 02:50:27;;;;;;;5.53;5.03;;;21.10;99.90;;;;;;5076402;28;20450;-66
2021/06/28 02:52:54;;;;;;;6.70;4.70;;;21.10;99.90;;;;;;5076428;28;20477;-66
2021/06/28 02:55:21;;;;;;;5.40;4.90;;;21.10;99.90;;;;;;5076302;28;20776;-65
2021/06/28 02:57:48;;;;;;;4.77;4.37;;;21.00;99.90;;;;;;5076095;28;20454;-65
2021/06/28 03:00:17;;;;;;;6.47;5.13;;;21.00;99.90;;;;;;5075811;28;20539;-66
2021/06/28 03:02:44;;;;;;;6.07;5.17;;;21.00;99.90;;;;;;5075571;28;20461;-66
2021/06/28 03:05:12;;;;;;;6.00;5.50;;;21.00;99.90;;;;;;5075957;28;20458;-66
2021/06/28 03:07:41;;;;;;;5.97;5.47;;;20.90;99.90;;;;;;5075731;28;20489;-67
2021/06/28 03:10:10;;;;;;;5.97;5.47;;;20.90;99.90;;;;;;5074776;28;20447;-66
2021/06/28 03:12:37;;;;;;;5.10;4.70;;;20.90;99.90;;;;;;5075775;28;20458;-66
2021/06/28 03:15:06;;;;;;;5.33;4.90;;;20.90;1.00;;;;;;5075700;28;20527;-66
2021/06/28 03:17:32;;;;;;;7.37;5.60;;;20.90;1.00;;;;;;5075622;28;20458;-66
2021/06/28 03:19:59;;;;;;;6.30;5.70;;;20.90;1.00;;;;;;5075451;28;20477;-67
2021/06/28 03:22:26;;;;;;;6.63;5.77;;;20.90;1.00;;;;;;5075246;28;20461;-67
2021/06/28 03:24:54;;;;;;;5.40;5.00;;;20.90;1.00;;;;;;5075384;28;20458;-67
2021/06/28 03:27:21;;;;;;;7.37;5.70;;;20.90;1.00;;;;;;5075380;28;20473;-67
2021/06/28 03:29:48;;;;;;;9.87;5.70;;;20.90;1.00;;;;;;5075764;28;20511;-67
2021/06/28 03:32:15;;;;;;;5.83;5.13;;;20.90;1.00;;;;;;5075248;28;20454;-67
2021/06/28 03:34:42;;;;;;;5.17;4.67;;;20.90;1.00;;;;;;5075482;28;20480;-67
2021/06/28 03:37:09;;;;;;;5.40;4.90;;;20.90;1.00;;;;;;5074819;28;20454;-66
2021/06/28 03:39:36;;;;;;;5.30;4.90;;;20.90;1.00;;;;;;5075982;28;20504;-67
2021/06/28 03:42:05;;;;;;;5.83;5.33;;;21.00;1.00;;;;;;5075014;28;20788;-66
2021/06/28 03:44:32;;;;;;;5.90;5.30;;;21.00;1.00;;;;;;5075048;28;20937;-66
2021/06/28 03:46:59;;;;;;;5.50;5.00;;;21.00;1.00;;;;;;5074885;28;20815;-66
2021/06/28 03:49:29;;;;;;;8.70;5.40;;;21.00;1.00;;;;;;5075366;28;20454;-67
2021/06/28 03:51:55;;;;;;;6.17;5.53;;;21.10;1.00;;;;;;5075186;28;20461;-66
2021/06/28 03:54:22;;;;;;;7.13;5.80;;;21.10;1.00;;;;;;5075024;28;20484;-66
2021/06/28 03:56:49;;;;;;;5.93;5.30;;;21.10;99.90;;;;;;5074851;28;20465;-66
2021/06/28 03:59:17;;;;;;;8.23;5.60;;;21.10;99.90;;;;;;5074472;28;20462;-66
2021/06/28 04:01:44;;;;;;;5.70;5.20;;;21.20;99.90;;;;;;5074977;28;20538;-68
2021/06/28 04:04:10;;;;;;;5.80;5.20;;;21.20;99.90;;;;;;5075022;28;20451;-66
2021/06/28 04:06:37;;;;;;;6.20;5.70;;;21.20;99.90;;;;;;5074784;28;20792;-66
2021/06/28 04:09:04;;;;;;;5.43;4.97;;;21.30;99.90;;;;;;5074745;28;20493;-67
2021/06/28 04:11:31;;;;;;;5.73;5.23;;;21.30;99.90;;;;;;5074614;28;20780;-65
2021/06/28 04:13:58;;;;;;;5.70;5.20;;;21.40;99.90;;;;;;5074858;28;20470;-65
2021/06/28 04:16:27;;;;;;;6.83;5.83;;;21.40;99.90;;;;;;5075021;28;20454;-66
2021/06/28 04:18:54;;;;;;;6.10;5.50;;;21.40;99.90;;;;;;5074572;28;20465;-65
2021/06/28 04:21:20;;;;;;;5.67;5.17;;;21.40;99.90;;;;;;5074284;28;20478;-66
2021/06/28 04:23:47;;;;;;;6.20;5.30;;;21.50;99.90;;;;;;5074733;28;20458;-66
2021/06/28 04:26:14;;;;;;;5.73;5.10;;;21.60;99.90;;;;;;5074800;28;20451;-66
2021/06/28 04:28:40;;;;;;;5.50;5.10;;;21.60;99.90;;;;;;5074937;28;20540;-66
2021/06/28 04:31:07;;;;;;;5.70;5.10;;;21.70;99.90;;;;;;5074601;28;20920;-66
2021/06/28 04:33:35;;;;;;;5.90;4.80;;;21.70;99.90;;;;;;5074715;28;20454;-67
2021/06/28 04:36:02;;;;;;;5.10;4.77;;;21.80;99.90;;;;;;5074224;28;20464;-66
2021/06/28 04:38:31;;;;;;;5.50;5.10;;;21.90;99.90;;;;;;5074172;28;20454;-66
2021/06/28 04:40:58;;;;;;;5.10;4.50;;;21.90;99.90;;;;;;5074450;28;20478;-66
2021/06/28 04:43:30;;;;;;;7.13;5.70;;;21.90;99.90;;;;;;5074539;28;20458;-66
2021/06/28 04:45:56;;;;;;;5.40;4.90;;;22.00;99.90;;;;;;5074870;28;20453;-66
2021/06/28 04:48:23;;;;;;;5.00;4.60;;;22.00;99.50;;;;;;5074090;28;20539;-67
2021/06/28 04:50:51;;;;;;;4.77;4.37;;;22.00;58.20;;;;;;5074481;28;20777;-67
2021/06/28 04:53:21;;;;;;;5.57;4.37;;;22.10;32.90;;;;;;5074085;28;20439;-67
2021/06/28 04:55:47;;;;;;;5.27;4.80;;;22.10;23.20;;;;;;5074770;28;20462;-66
2021/06/28 04:58:14;;;;;;;18.03;15.00;;;22.20;8.70;;;;;;5074230;28;20549;-67
2021/06/28 05:00:41;;;;;;;13.20;11.80;;;22.20;2.10;;;;;;5074277;28;20541;-65
2021/06/28 05:03:08;;;;;;;7.40;6.40;;;22.30;2.90;;;;;;5074405;28;20467;-67
2021/06/28 05:05:34;;;;;;;6.50;5.67;;;22.40;1.40;;;;;;5074256;28;20910;-67
2021/06/28 05:08:03;;;;;;;10.90;4.57;;;22.40;1.00;;;;;;5074325;28;20480;-67
2021/06/28 05:10:29;;;;;;;5.30;4.67;;;22.50;1.00;;;;;;5074855;28;20454;-67
2021/06/28 05:12:56;;;;;;;6.40;5.73;;;22.60;1.00;;;;;;5074301;28;20462;-67
2021/06/28 05:15:23;;;;;;;6.03;4.57;;;22.70;1.00;;;;;;5074492;28;20454;-67
2021/06/28 05:17:49;;;;;;;5.10;4.70;;;22.70;1.00;;;;;;5074066;28;20999;-66
2021/06/28 05:20:16;;;;;;;6.30;4.80;;;22.80;1.00;;;;;;5074146;28;20529;-66
2021/06/28 05:22:44;;;;;;;5.47;4.97;;;22.80;1.00;;;;;;5073742;28;20462;-66
2021/06/28 05:25:14;;;;;;;4.80;4.40;;;22.90;1.00;;;;;;5073998;28;20454;-66
2021/06/28 05:27:41;;;;;;;5.10;4.60;;;22.90;1.00;;;;;;5074446;28;20458;-66
2021/06/28 05:30:09;;;;;;;6.43;4.70;;;23.00;1.00;;;;;;5074176;28;20454;-67
2021/06/28 05:32:37;;;;;;;5.63;4.87;;;23.00;1.00;;;;;;5074303;28;20488;-66
2021/06/28 05:35:05;;;;;;;5.07;4.67;;;23.10;1.00;;;;;;5076925;28;20465;-67
2021/06/28 05:37:31;;;;;;;4.63;4.23;;;23.20;1.00;;;;;;5077096;28;20458;-67
2021/06/28 05:40:01;;;;;;;4.63;4.23;;;23.20;1.00;;;;;;5077498;28;20466;-67
2021/06/28 05:42:29;;;;;;;5.70;5.13;;;23.30;1.00;;;;;;5077334;28;20469;-67
2021/06/28 05:44:56;;;;;;;5.13;4.40;;;23.40;1.00;;;;;;5077898;28;20527;-66
2021/06/28 05:47:23;;;;;;;12.90;5.73;;;23.40;1.00;;;;;;5077930;28;20481;-67
2021/06/28 05:49:51;;;;;;;5.67;4.60;;;23.50;1.00;;;;;;5077438;28;20490;-66
2021/06/28 05:52:20;;;;;;;6.53;4.03;;;23.50;1.00;;;;;;5077537;28;20454;-67
2021/06/28 05:54:48;;;;;;;5.47;4.97;;;23.60;1.00;;;;;;5077100;28;20549;-66
2021/06/28 05:57:17;;;;;;;9.67;6.03;;;23.60;1.00;;;;;;5077690;28;20468;-66
2021/06/28 05:59:45;;;;;;;5.87;4.33;;;23.70;1.00;;;;;;5077592;28;20458;-66
2021/06/28 06:02:12;;;;;;;5.33;4.83;;;23.80;1.00;;;;;;5077251;28;20478;-67
2021/06/28 06:04:39;;;;;;;6.10;4.57;;;23.80;1.00;;;;;;5077198;28;20469;-65
2021/06/28 06:07:05;;;;;;;4.30;4.00;;;23.90;1.00;;;;;;5077303;28;20566;-66
2021/06/28 06:09:32;;;;;;;5.80;4.60;;;23.90;1.00;;;;;;5077620;28;20465;-65
2021/06/28 06:11:59;;;;;;;4.43;4.03;;;24.00;1.00;;;;;;5077347;28;20455;-67
2021/06/28 06:14:26;;;;;;;6.50;4.50;;;24.10;1.00;;;;;;5076789;28;20454;-67
2021/06/28 06:16:54;;;;;;;6.37;4.00;;;24.10;1.00;;;;;;5077039;28;20455;-66
2021/06/28 06:19:21;;;;;;;5.70;4.27;;;24.10;1.00;;;;;;5081553;28;20775;-67
2021/06/28 06:21:47;;;;;;;5.10;4.60;;;24.10;1.00;;;;;;5085848;28;20478;-67
2021/06/28 06:24:14;;;;;;;5.37;4.87;;;24.10;1.00;;;;;;5085012;28;20469;-68
2021/06/28 06:26:41;;;;;;;4.70;4.30;;;24.10;1.00;;;;;;5085389;28;20454;-69
2021/06/28 06:29:09;;;;;;;5.60;5.10;;;24.20;1.00;;;;;;5085051;28;20933;-68
2021/06/28 06:31:38;;;;;;;5.77;5.20;;;24.20;1.00;;;;;;5085279;28;20480;-68
2021/06/28 06:34:06;;;;;;;8.20;5.03;;;24.30;1.00;;;;;;5085480;28;20460;-68
2021/06/28 06:36:33;;;;;;;5.40;4.97;;;24.30;1.00;;;;;;5084864;28;20465;-68
2021/06/28 06:38:59;;;;;;;9.40;5.00;;;24.40;1.00;;;;;;5085036;28;20492;-68
2021/06/28 06:41:26;;;;;;;5.23;4.73;;;24.40;1.00;;;;;;5084021;28;20474;-68
2021/06/28 06:43:53;;;;;;;5.70;5.20;;;24.50;1.00;;;;;;5084585;28;20469;-68
2021/06/28 06:46:19;;;;;;;5.63;4.70;;;24.50;1.00;;;;;;5083226;28;20454;-68
2021/06/28 06:48:46;;;;;;;5.93;5.40;;;24.50;1.00;;;;;;5084441;28;20449;-68
2021/06/28 06:51:14;;;;;;;9.63;5.40;;;24.60;1.00;;;;;;5086630;28;20450;-69
2021/06/28 06:53:41;;;;;;;5.67;5.07;;;24.70;1.00;;;;;;5086569;28;20449;-69
2021/06/28 06:56:08;;;;;;;7.20;5.80;;;24.70;1.00;;;;;;5086106;28;20521;-68
2021/06/28 06:58:35;;;;;;;7.70;5.50;;;24.80;1.00;;;;;;5085537;28;20462;-69
2021/06/28 07:01:02;;;;;;;8.63;5.90;;;24.90;1.00;;;;;;5084129;28;20815;-68
2021/06/28 07:03:29;;;;;;;5.93;5.17;;;24.90;1.00;;;;;;5084512;28;20761;-68
2021/06/28 07:05:56;;;;;;;6.30;5.70;;;24.90;1.00;;;;;;5084861;28;20457;-69
2021/06/28 07:08:24;;;;;;;9.13;6.17;;;25.00;1.00;;;;;;5083979;28;20450;-69
2021/06/28 07:10:51;;;;;;;6.63;5.40;;;25.10;1.00;;;;;;5084176;28;20450;-68
2021/06/28 07:13:18;;;;;;;7.63;6.63;;;25.10;1.00;;;;;;5083721;28;20477;-69
2021/06/28 07:15:45;;;;;;;6.20;5.60;;;25.10;1.00;;;;;;5083813;28;20486;-68
2021/06/28 07:18:11;;;;;;;7.63;6.10;;;25.10;1.00;;;;;;5082629;28;20458;-68
2021/06/28 07:20:38;;;;;;;7.60;6.20;;;25.20;1.00;;;;;;5081607;28;20485;-68
2021/06/28 07:23:05;;;;;;;7.20;6.50;;;25.30;1.00;;;;;;5082861;28;20454;-68
2021/06/28 07:25:33;;;;;;;6.60;5.97;;;25.40;1.00;;;;;;5082293;28;20533;-68
2021/06/28 07:28:00;;;;;;;8.87;6.73;;;25.40;1.00;;;;;;5082115;28;20458;-68
2021/06/28 07:30:28;;;;;;;8.90;6.30;;;25.50;1.00;;;;;;5081862;28;20450;-68
2021/06/28 07:32:55;;;;;;;6.87;6.13;;;25.60;1.00;;;;;;5081914;28;20915;-68
2021/06/28 07:35:23;;;;;;;6.50;5.97;;;25.70;1.00;;;;;;5083557;28;20469;-68
2021/06/28 07:37:50;;;;;;;7.63;6.80;;;25.90;1.00;;;;;;5082785;28;20489;-68
2021/06/28 07:40:26;;;;;;;7.37;6.77;;;26.00;1.00;;;;;;5082495;28;20464;-69
2021/06/28 07:42:57;;;;;;;6.37;5.77;;;26.00;1.00;;;;;;5084201;28;20529;-69
2021/06/28 07:45:28;;;;;;;12.07;6.23;;;26.10;1.00;;;;;;5083477;28;20450;-70
2021/06/28 07:47:54;;;;;;;6.63;6.03;;;26.20;1.00;;;;;;5083216;28;20964;-69
2021/06/28 07:50:31;;;;;;;6.30;5.70;;;26.20;1.00;;;;;;5082089;28;20469;-69
2021/06/28 07:53:00;;;;;;;5.23;4.83;;;26.30;1.00;;;;;;5083097;28;20450;-69
2021/06/28 07:55:31;;;;;;;7.90;5.60;;;26.40;1.00;;;;;;5082331;28;20782;-68
2021/06/28 07:57:59;;;;;;;10.50;5.10;;;26.40;1.00;;;;;;5082310;28;20887;-69
2021/06/28 08:00:25;;;;;;;7.57;6.97;;;26.40;1.00;;;;;;5081721;28;20461;-69
2021/06/28 08:02:52;;;;;;;6.13;5.63;;;26.50;1.00;;;;;;5080870;28;20484;-72
2021/06/28 08:05:19;;;;;;;6.40;5.80;;;26.50;1.00;;;;;;5081190;28;20461;-68
2021/06/28 08:07:46;;;;;;;5.50;5.10;;;26.60;1.00;;;;;;5081068;28;20462;-69
2021/06/28 08:10:14;;;;;;;5.40;5.00;;;26.60;1.00;;;;;;5080678;28;20469;-69
2021/06/28 08:12:41;;;;;;;5.73;5.27;;;26.70;1.00;;;;;;5076130;28;20458;-67
2021/06/28 08:15:11;;;;;;;6.30;5.70;;;26.80;1.00;;;;;;5074898;28;20469;-67
2021/06/28 08:17:38;;;;;;;5.47;4.97;;;26.90;1.00;;;;;;5074663;28;20461;-66
2021/06/28 08:20:07;;;;;;;4.60;4.30;;;27.00;1.00;;;;;;5074907;28;20536;-66
2021/06/28 08:22:33;;;;;;;6.53;4.53;;;27.10;1.00;;;;;;5074693;28;20481;-67
2021/06/28 08:25:00;;;;;;;4.20;3.80;;;27.10;1.00;;;;;;5074512;28;21003;-67
2021/06/28 08:27:27;;;;;;;6.53;4.00;;;27.10;1.00;;;;;;5074594;28;20450;-66
2021/06/28 08:29:54;;;;;;;5.30;4.90;;;27.10;1.00;;;;;;5074397;28;20451;-67
2021/06/28 08:32:22;;;;;;;4.60;4.00;;;27.20;1.00;;;;;;5073921;28;20454;-68
2021/06/28 08:34:48;;;;;;;4.40;4.10;;;27.20;1.00;;;;;;5074779;28;20813;-66
2021/06/28 08:37:15;;;;;;;4.93;4.47;;;27.30;1.00;;;;;;5074778;28;20485;-67
2021/06/28 08:39:42;;;;;;;4.67;4.30;;;27.40;1.00;;;;;;5074581;28;20454;-66
2021/06/28 08:42:10;;;;;;;3.87;3.57;;;27.50;1.00;;;;;;5074511;28;20489;-66
2021/06/28 08:44:37;;;;;;;4.60;4.20;;;27.60;1.00;;;;;;5074643;28;20464;-66
2021/06/28 08:47:04;;;;;;;3.83;3.53;;;27.60;1.00;;;;;;5074193;28;20818;-67
2021/06/28 08:49:34;;;;;;;4.40;4.00;;;27.70;1.00;;;;;;5074261;28;20461;-66
2021/06/28 08:52:01;;;;;;;4.03;3.73;;;27.80;1.00;;;;;;5074324;28;20454;-66
2021/06/28 08:54:28;;;;;;;4.00;3.70;;;27.90;1.00;;;;;;5074936;28;20473;-66
2021/06/28 08:56:54;;;;;;;5.23;4.70;;;27.90;1.00;;;;;;5074936;28;20832;-67
2021/06/28 08:59:21;;;;;;;3.97;3.57;;;28.00;1.00;;;;;;5074238;28;20485;-67
2021/06/28 09:01:48;;;;;;;4.73;4.23;;;28.10;1.00;;;;;;5074254;28;20501;-67
2021/06/28 09:04:15;;;;;;;4.70;4.30;;;28.20;1.00;;;;;;5074617;28;20787;-67
2021/06/28 09:06:45;;;;;;;4.43;4.13;;;28.20;1.00;;;;;;5074042;28;20524;-67
2021/06/28 09:09:13;;;;;;;4.53;4.20;;;28.30;1.00;;;;;;5076357;28;20458;-68
2021/06/28 09:11:41;;;;;;;4.50;4.20;;;28.40;1.00;;;;;;5077948;28;20450;-67
2021/06/28 09:14:10;;;;;;;3.87;3.57;;;28.50;1.00;;;;;;5078538;28;20552;-66
2021/06/28 09:16:39;;;;;;;4.50;4.20;;;28.60;1.00;;;;;;5078025;28;20454;-66
2021/06/28 09:19:07;;;;;;;5.60;4.60;;;28.60;1.00;;;;;;5077777;28;20498;-66
2021/06/28 09:21:40;;;;;;;4.87;4.53;;;28.60;1.00;;;;;;5078143;28;20481;-66
2021/06/28 09:24:25;;;;;;;6.20;4.07;;;28.70;1.00;;;;;;5077944;28;20844;-66
2021/06/28 09:26:54;;;;;;;4.80;4.40;;;28.70;1.00;;;;;;5077901;28;20516;-66
2021/06/28 09:29:32;;;;;;;4.27;3.90;;;28.80;1.00;;;;;;5077736;28;20457;-66
2021/06/28 09:31:59;;;;;;;4.40;4.10;;;28.90;1.00;;;;;;5077802;28;20901;-66
2021/06/28 09:34:26;;;;;;;4.30;4.00;;;29.00;1.00;;;;;;5077685;28;20458;-67
2021/06/28 09:36:55;;;;;;;5.43;4.73;;;29.00;1.00;;;;;;5077623;28;20480;-66
2021/06/28 09:39:26;;;;;;;5.10;3.33;;;29.10;1.00;;;;;;5077886;28;20520;-65
2021/06/28 09:41:58;;;;;;;5.10;4.60;;;29.20;1.00;;;;;;5077662;28;20470;-67
2021/06/28 09:44:31;;;;;;;15.53;3.70;;;29.20;1.00;;;;;;5077164;28;20438;-67
2021/06/28 09:47:20;;;;;;;4.00;3.70;;;29.20;1.00;;;;;;5077393;28;20489;-67
2021/06/28 09:50:01;;;;;;;3.47;3.27;;;29.30;1.00;;;;;;5072743;28;20465;-67
2021/06/28 09:52:30;;;;;;;5.20;3.90;;;29.30;1.00;;;;;;5078331;28;20815;-67
2021/06/28 09:55:12;;;;;;;9.80;4.27;;;29.30;1.00;;;;;;5077548;28;20457;-67
2021/06/28 09:57:38;;;;;;;4.87;4.37;;;29.30;1.00;;;;;;5077463;28;20457;-67
2021/06/28 10:00:23;;;;;;;5.17;4.63;;;29.30;1.00;;;;;;5077394;28;20481;-66
2021/06/28 10:02:49;;;;;;;4.73;4.33;;;29.30;1.00;;;;;;5077107;28;20471;-66
2021/06/28 10:05:18;;;;;;;4.30;3.90;;;29.30;1.00;;;;;;5077125;28;20454;-66
2021/06/28 10:07:45;;;;;;;4.70;4.40;;;29.40;1.00;;;;;;5077045;28;20549;-66
2021/06/28 10:10:21;;;;;;;4.83;4.47;;;29.40;1.00;;;;;;5077492;28;20818;-66
2021/06/28 10:12:58;;;;;;;4.17;3.87;;;29.40;1.00;;;;;;5077064;28;20438;-66
2021/06/28 10:15:28;;;;;;;4.50;4.10;;;29.30;1.00;;;;;;5077030;28;20449;-66
2021/06/28 10:17:55;;;;;;;4.87;4.50;;;29.40;1.00;;;;;;5076998;28;20447;-66
2021/06/28 10:20:24;;;;;;;5.07;4.67;;;29.50;1.00;;;;;;5076640;28;20450;-66
2021/06/28 10:22:53;;;;;;;5.53;4.53;;;29.80;1.00;;;;;;5076718;28;20512;-66
2021/06/28 10:25:24;;;;;;;5.10;4.70;;;30.00;1.00;;;;;;5076893;28;20462;-66
2021/06/28 10:27:51;;;;;;;4.77;4.47;;;30.20;1.00;;;;;;5076621;28;20438;-66
2021/06/28 10:30:20;;;;;;;5.03;4.40;;;30.40;1.00;;;;;;5077436;28;20458;-66
2021/06/28 10:32:50;;;;;;;4.97;4.67;;;30.50;1.00;;;;;;5076859;28;20783;-65
2021/06/28 10:35:24;;;;;;;5.47;4.60;;;30.70;1.00;;;;;;5076347;28;20501;-66
2021/06/28 10:37:52;;;;;;;4.67;4.37;;;30.80;1.00;;;;;;5077222;28;20453;-66
2021/06/28 10:40:22;;;;;;;4.80;4.30;;;30.90;1.00;;;;;;5076390;28;20469;-66
2021/06/28 10:42:51;;;;;;;4.40;4.00;;;31.10;1.00;;;;;;5076958;28;20493;-66
2021/06/28 10:45:38;;;;;;;4.17;3.73;;;31.40;1.00;;;;;;5076469;28;20524;-66
2021/06/28 10:48:12;;;;;;;4.20;3.90;;;31.70;1.00;;;;;;5075936;28;20493;-66
2021/06/28 10:50:53;;;;;;;8.00;5.30;;;32.00;1.00;;;;;;5076478;28;20443;-66
2021/06/28 10:53:36;;;;;;;5.10;4.70;;;32.20;1.00;;;;;;5075689;28;20442;-65
2021/06/28 10:58:55;;;;;;;4.70;4.20;;;32.70;1.00;;;;;;5075702;28;20442;-66
2021/06/28 11:01:34;;;;;;;3.40;3.20;;;33.00;1.00;;;;;;5076299;28;20481;-66
2021/06/28 11:04:08;;;;;;;4.00;3.70;;;33.30;1.00;;;;;;5076717;28;20832;-67
2021/06/28 11:06:35;;;;;;;3.87;3.57;;;33.50;1.00;;;;;;5076338;28;20789;-66
2021/06/28 11:09:06;;;;;;;5.70;4.03;;;33.60;1.00;;;;;;5075973;28;20450;-66
2021/06/28 11:11:56;;;;;;;4.10;3.80;;;33.50;1.00;;;;;;5076148;28;20439;-66
2021/06/28 11:14:51;;;;;;;4.20;3.77;;;33.40;1.00;;;;;;5075807;28;20447;-66
2021/06/28 11:17:22;;;;;;;4.50;3.70;;;33.20;1.00;;;;;;5075769;28;20903;-66
2021/06/28 11:19:55;;;;;;;3.93;3.50;;;33.10;1.00;;;;;;5075419;28;20933;-66
2021/06/28 11:22:41;;;;;;;3.20;3.00;;;33.10;1.00;;;;;;5075789;28;20471;-66
2021/06/28 11:25:17;;;;;;;3.07;2.83;;;33.00;1.00;;;;;;5075509;28;20442;-66
2021/06/28 11:27:46;;;;;;;3.53;3.33;;;32.90;1.00;;;;;;5075877;28;20454;-66
2021/06/28 11:30:23;;;;;;;3.50;3.20;;;32.80;1.00;;;;;;5075788;28;20454;-66
2021/06/28 11:33:02;;;;;;;3.00;2.80;;;32.70;1.00;;;;;;5075155;28;20439;-66
2021/06/28 11:35:42;;;;;;;3.80;3.40;;;32.50;1.00;;;;;;5075433;28;20937;-66
2021/06/28 11:38:25;;;;;;;3.27;3.00;;;32.20;1.00;;;;;;5075533;28;20449;-66
2021/06/28 11:40:54;;;;;;;3.53;3.33;;;32.00;1.00;;;;;;5075261;28;20469;-66
2021/06/28 11:43:43;;;;;;;3.23;2.97;;;32.00;1.00;;;;;;5074962;28;20470;-66
2021/06/28 11:46:12;;;;;;;3.50;3.30;;;32.10;1.00;;;;;;5075667;28;20499;-66
2021/06/28 11:48:41;;;;;;;3.33;3.10;;;32.20;1.00;;;;;;5075305;28;20457;-66
2021/06/28 11:51:16;;;;;;;5.23;2.83;;;32.30;1.00;;;;;;5075457;28;20902;-66
2021/06/28 11:53:49;;;;;;;6.70;3.20;;;32.50;1.00;;;;;;5074828;28;20449;-66
2021/06/28 11:56:23;;;;;;;3.30;3.00;;;32.70;1.00;;;;;;5075155;28;20442;-66
2021/06/28 11:59:03;;;;;;;5.20;3.80;;;32.80;1.00;;;;;;5075701;28;20473;-67
2021/06/28 12:01:32;;;;;;;4.00;3.20;;;32.80;1.00;;;;;;5074921;28;20914;-67
2021/06/28 12:04:01;;;;;;;3.23;3.03;;;32.70;1.00;;;;;;5074704;28;20482;-68
2021/06/28 12:06:31;;;;;;;3.77;2.90;;;32.50;1.00;;;;;;5074971;28;20465;-67
2021/06/28 12:09:14;;;;;;;3.60;3.30;;;32.50;1.00;;;;;;5074825;28;20529;-67
2021/06/28 12:11:52;;;;;;;3.00;2.80;;;32.50;1.00;;;;;;5074990;28;20468;-68
2021/06/28 12:14:35;;;;;;;3.40;3.00;;;32.70;1.00;;;;;;5074669;28;20458;-68
2021/06/28 12:17:09;;;;;;;3.30;3.00;;;33.10;1.00;;;;;;5075186;28;20448;-67
2021/06/28 12:19:36;;;;;;;3.37;3.17;;;33.50;1.00;;;;;;5074225;28;20438;-67
2021/06/28 12:22:09;;;;;;;2.93;2.73;;;33.80;1.00;;;;;;5075110;28;20794;-67
2021/06/28 12:24:35;;;;;;;3.07;2.77;;;34.40;1.00;;;;;;5075052;28;20450;-67
2021/06/28 12:27:05;;;;;;;2.73;2.53;;;34.80;1.00;;;;;;5075055;28;20790;-67
2021/06/28 12:29:41;;;;;;;3.27;3.07;;;35.10;1.00;;;;;;5074911;28;20469;-67
2021/06/28 12:32:13;;;;;;;3.23;3.03;;;35.40;1.00;;;;;;5075162;28;20766;-67
2021/06/28 12:34:45;;;;;;;3.67;3.17;;;35.80;1.00;;;;;;5074711;28;20438;-67
2021/06/28 12:37:12;;;;;;;4.57;3.30;;;36.10;1.00;;;;;;5075012;28;20453;-67
2021/06/28 12:39:39;;;;;;;3.50;3.20;;;36.70;1.00;;;;;;5074921;28;20500;-68
2021/06/28 12:42:14;;;;;;;3.70;2.80;;;37.10;1.00;;;;;;5074081;28;20462;-67
2021/06/28 12:44:43;;;;;;;3.10;2.90;;;37.30;1.00;;;;;;5077420;28;20457;-67
2021/06/28 12:47:11;;;;;;;3.63;3.30;;;37.40;1.00;;;;;;5078803;28;20532;-67
2021/06/28 12:49:39;;;;;;;3.33;2.60;;;37.60;1.00;;;;;;5078617;28;20461;-67
2021/06/28 12:52:27;;;;;;;3.07;2.70;;;37.80;1.00;;;;;;5078364;28;20454;-67
2021/06/28 12:55:09;;;;;;;6.73;3.00;;;37.90;1.00;;;;;;5078947;28;20438;-67
2021/06/28 12:57:37;;;;;;;2.60;2.40;;;37.80;1.00;;;;;;5078975;28;20891;-67
2021/06/28 13:00:17;;;;;;;3.60;3.10;;;37.60;1.00;;;;;;5078317;28;20822;-67
2021/06/28 13:02:52;;;;;;;2.97;2.77;;;37.70;1.00;;;;;;5078835;28;20461;-67
2021/06/28 13:05:19;;;;;;;2.60;2.40;;;38.00;1.00;;;;;;5078371;28;20507;-67